Time;durP1;ratioP1;P1;durP2;ratioP2;P2;SDS_P1;SDS_P2;PMS_P1;PMS_P2;Temp;Humidity;BMP_temperature;BMP_pressure;BME280_temperature;BME280_humidity;BME280_pressure;Samples;Min_cycle;Max_cycle;Signal;HPM_P1;HPM_P2
2022/07/31 00:01:36;;;;;;;3.10;2.72;;;21.90;54.30;;;;;;4977446;28;20676;-69
2022/07/31 00:04:06;;;;;;;3.10;2.60;;;21.80;54.60;;;;;;4990074;28;20442;-70
2022/07/31 00:06:33;;;;;;;3.58;2.80;;;21.80;54.40;;;;;;4990536;28;20441;-70
2022/07/31 00:09:00;;;;;;;2.97;2.63;;;21.80;54.70;;;;;;4985304;28;20457;-70
2022/07/31 00:11:27;;;;;;;2.78;2.40;;;21.80;54.50;;;;;;4988308;28;20438;-71
2022/07/31 00:13:53;;;;;;;2.70;2.50;;;21.80;53.50;;;;;;4984004;28;20984;-69
2022/07/31 00:16:20;;;;;;;3.10;2.80;;;21.70;53.90;;;;;;4983134;28;20434;-72
2022/07/31 00:18:47;;;;;;;3.97;2.58;;;21.70;54.20;;;;;;4989071;28;20452;-72
2022/07/31 00:21:15;;;;;;;4.18;2.97;;;21.70;54.10;;;;;;4994437;28;20432;-71
2022/07/31 00:23:42;;;;;;;3.13;2.83;;;21.60;55.00;;;;;;5002575;28;20447;-70
2022/07/31 00:26:09;;;;;;;3.22;2.83;;;21.60;54.40;;;;;;4992152;28;20429;-71
2022/07/31 00:28:36;;;;;;;3.20;2.90;;;21.60;55.10;;;;;;4984331;28;20454;-71
2022/07/31 00:31:03;;;;;;;3.22;2.75;;;21.60;54.90;;;;;;4991152;28;20446;-71
2022/07/31 00:33:30;;;;;;;3.15;2.75;;;21.60;55.00;;;;;;4989383;28;20517;-70
2022/07/31 00:35:57;;;;;;;3.85;3.05;;;21.60;55.40;;;;;;5000541;28;20457;-69
2022/07/31 00:38:25;;;;;;;3.40;2.87;;;21.50;56.50;;;;;;4981681;28;20440;-70
2022/07/31 00:40:52;;;;;;;4.22;3.30;;;21.50;56.00;;;;;;4988246;28;20436;-70
2022/07/31 00:43:19;;;;;;;3.50;3.20;;;21.50;56.30;;;;;;4980206;28;20448;-71
2022/07/31 00:45:46;;;;;;;4.15;3.30;;;21.50;56.10;;;;;;4997021;28;20459;-70
2022/07/31 00:48:13;;;;;;;3.90;3.50;;;21.40;56.60;;;;;;4984512;28;20444;-70
2022/07/31 00:50:40;;;;;;;4.15;3.40;;;21.40;56.80;;;;;;4994049;28;20438;-76
2022/07/31 00:53:06;;;;;;;3.33;3.00;;;21.40;57.50;;;;;;4978507;28;20447;-69
2022/07/31 00:55:35;;;;;;;5.38;3.40;;;21.40;57.70;;;;;;4980681;28;20442;-70
2022/07/31 00:58:01;;;;;;;4.97;3.83;;;21.30;58.20;;;;;;4981535;28;20446;-72
2022/07/31 01:00:28;;;;;;;3.83;3.05;;;21.30;57.70;;;;;;4974154;28;20800;-72
2022/07/31 01:02:55;;;;;;;3.00;2.70;;;21.20;57.40;;;;;;4997341;28;20816;-71
2022/07/31 01:05:22;;;;;;;3.58;3.00;;;21.20;58.10;;;;;;4986305;28;20442;-71
2022/07/31 01:07:49;;;;;;;3.72;3.22;;;21.20;57.90;;;;;;4989216;28;20447;-72
2022/07/31 01:10:25;;;;;;;3.50;3.20;;;21.10;57.80;;;;;;4983041;28;20456;-71
2022/07/31 01:12:59;;;;;;;3.80;3.47;;;21.10;58.40;;;;;;4987845;28;20449;-72
2022/07/31 01:15:27;;;;;;;3.83;3.08;;;21.10;58.50;;;;;;4989419;28;20414;-71
2022/07/31 01:17:55;;;;;;;4.82;3.33;;;21.00;58.20;;;;;;4983130;28;20438;-71
2022/07/31 01:20:22;;;;;;;5.63;3.30;;;20.90;58.90;;;;;;4982334;28;20449;-72
2022/07/31 01:23:21;;;;;;;3.80;3.50;;;20.90;59.10;;;;;;4984380;28;20505;-72
2022/07/31 01:25:59;;;;;;;4.30;3.33;;;20.90;59.70;;;;;;4951893;28;20532;-70
2022/07/31 01:28:49;;;;;;;3.97;3.60;;;20.80;59.70;;;;;;4983918;28;20463;-70
2022/07/31 01:31:21;;;;;;;3.80;3.40;;;20.80;60.00;;;;;;4976698;28;20435;-71
2022/07/31 01:33:53;;;;;;;3.80;3.50;;;20.80;60.70;;;;;;4985220;28;20929;-70
2022/07/31 01:36:26;;;;;;;3.40;3.00;;;20.70;60.20;;;;;;4988118;28;20949;-72
2022/07/31 01:38:57;;;;;;;4.00;3.42;;;20.70;60.40;;;;;;4981800;28;20459;-71
2022/07/31 01:41:28;;;;;;;4.60;3.50;;;20.70;60.90;;;;;;4980418;28;20440;-70
2022/07/31 01:43:58;;;;;;;4.65;3.50;;;20.60;60.70;;;;;;4984786;28;20450;-72
2022/07/31 01:46:27;;;;;;;3.70;3.30;;;20.60;61.00;;;;;;4987139;28;20912;-72
2022/07/31 01:48:55;;;;;;;4.00;3.35;;;20.60;60.90;;;;;;4986168;28;20813;-71
2022/07/31 01:51:25;;;;;;;3.67;3.20;;;20.50;61.40;;;;;;4986285;28;20438;-71
2022/07/31 01:53:55;;;;;;;3.58;3.03;;;20.50;61.00;;;;;;4986698;28;21069;-71
2022/07/31 01:56:22;;;;;;;3.10;2.90;;;20.50;61.00;;;;;;4987418;28;20500;-71
2022/07/31 01:58:50;;;;;;;3.50;3.20;;;20.50;61.50;;;;;;4978730;28;20459;-73
2022/07/31 02:01:19;;;;;;;3.58;3.28;;;20.50;61.10;;;;;;4991920;28;20445;-70
2022/07/31 02:03:48;;;;;;;6.22;3.25;;;20.40;61.50;;;;;;4981288;28;20449;-72
2022/07/31 02:06:19;;;;;;;3.70;3.30;;;20.40;61.20;;;;;;4981947;28;21011;-70
2022/07/31 02:08:48;;;;;;;4.30;3.10;;;20.40;61.40;;;;;;5008408;23;20997;-73
2022/07/31 02:11:19;;;;;;;3.55;3.17;;;20.40;62.00;;;;;;5001794;28;20456;-72
2022/07/31 02:13:46;;;;;;;4.18;3.25;;;20.30;62.10;;;;;;5002053;28;20454;-73
2022/07/31 02:16:14;;;;;;;4.18;3.42;;;20.30;62.50;;;;;;4999099;28;20424;-73
2022/07/31 02:18:43;;;;;;;3.67;3.20;;;20.30;62.10;;;;;;4998445;28;20452;-73
2022/07/31 02:21:10;;;;;;;3.60;3.30;;;20.30;62.00;;;;;;4996148;28;20429;-71
2022/07/31 02:23:37;;;;;;;3.92;3.50;;;20.30;62.40;;;;;;4999933;28;21092;-73
2022/07/31 02:26:05;;;;;;;3.50;3.20;;;20.30;62.80;;;;;;5000280;28;20438;-71
2022/07/31 02:28:34;;;;;;;3.65;3.35;;;20.20;63.00;;;;;;4993944;28;20436;-73
2022/07/31 02:31:02;;;;;;;3.40;3.10;;;20.20;62.60;;;;;;4993501;28;20458;-73
2022/07/31 02:33:30;;;;;;;3.42;3.00;;;20.20;62.30;;;;;;4985715;28;20438;-73
2022/07/31 02:35:59;;;;;;;3.70;3.40;;;20.20;63.00;;;;;;4997543;28;20445;-72
2022/07/31 02:38:27;;;;;;;3.47;3.10;;;20.20;63.90;;;;;;4997414;28;20501;-71
2022/07/31 02:40:58;;;;;;;4.75;3.22;;;20.20;63.90;;;;;;5003328;28;20917;-71
2022/07/31 02:43:26;;;;;;;3.88;3.05;;;20.20;62.80;;;;;;4992132;28;20436;-71
2022/07/31 02:45:54;;;;;;;3.70;3.33;;;20.20;62.50;;;;;;4986478;28;20532;-71
2022/07/31 02:48:21;;;;;;;3.47;3.17;;;20.20;63.10;;;;;;4988159;28;20543;-72
2022/07/31 02:50:49;;;;;;;4.05;3.60;;;20.20;62.60;;;;;;5013183;28;20930;-71
2022/07/31 02:53:17;;;;;;;4.75;3.90;;;20.20;62.60;;;;;;5006325;28;20430;-71
2022/07/31 02:55:45;;;;;;;3.72;3.42;;;20.20;63.10;;;;;;5004418;28;20435;-71
2022/07/31 02:58:13;;;;;;;3.65;3.30;;;20.20;63.10;;;;;;5001028;28;20450;-73
2022/07/31 03:00:39;;;;;;;4.00;3.40;;;20.10;62.80;;;;;;5002742;28;20500;-69
2022/07/31 03:03:06;;;;;;;3.80;3.50;;;20.20;63.60;;;;;;5000447;28;20429;-71
2022/07/31 03:05:33;;;;;;;3.65;3.10;;;20.20;62.50;;;;;;5000738;28;20440;-71
2022/07/31 03:08:00;;;;;;;4.03;3.70;;;20.10;64.10;;;;;;5008955;28;20520;-71
2022/07/31 03:10:28;;;;;;;4.53;3.70;;;20.10;63.50;;;;;;5008724;28;20529;-71
2022/07/31 03:12:55;;;;;;;5.55;3.55;;;20.20;62.40;;;;;;5006030;28;20442;-71
2022/07/31 03:15:26;;;;;;;3.53;3.10;;;20.10;62.60;;;;;;5010619;28;20431;-73
2022/07/31 03:17:54;;;;;;;3.65;3.45;;;20.10;63.70;;;;;;5002440;28;20495;-71
2022/07/31 03:20:22;;;;;;;4.68;3.80;;;20.10;62.90;;;;;;4992313;28;20545;-71
2022/07/31 03:22:49;;;;;;;4.30;3.50;;;20.00;63.10;;;;;;5005264;28;20442;-73
2022/07/31 03:25:17;;;;;;;3.60;3.30;;;20.10;63.10;;;;;;5004965;28;20440;-71
2022/07/31 03:27:46;;;;;;;4.30;3.90;;;20.10;62.90;;;;;;5001876;28;20449;-71
2022/07/31 03:30:17;;;;;;;3.92;3.50;;;20.10;63.10;;;;;;4998762;28;20907;-71
2022/07/31 03:32:44;;;;;;;3.60;3.30;;;20.10;62.10;;;;;;4997487;28;20440;-71
2022/07/31 03:35:11;;;;;;;4.05;3.65;;;20.20;61.80;;;;;;4998403;28;20503;-73
2022/07/31 03:37:38;;;;;;;4.38;3.25;;;20.20;62.90;;;;;;4995933;28;20445;-71
2022/07/31 03:40:05;;;;;;;3.60;3.30;;;20.20;61.80;;;;;;5010777;28;20444;-71
2022/07/31 03:42:32;;;;;;;4.35;3.30;;;20.30;61.40;;;;;;5002184;28;20434;-71
2022/07/31 03:45:02;;;;;;;3.70;3.20;;;20.20;62.20;;;;;;4995865;28;20797;-71
2022/07/31 03:47:30;;;;;;;3.53;3.22;;;20.20;60.90;;;;;;5002902;28;20441;-71
2022/07/31 03:49:57;;;;;;;3.85;3.45;;;20.20;62.20;;;;;;5004322;28;20436;-71
2022/07/31 03:52:24;;;;;;;3.60;3.30;;;20.20;60.80;;;;;;5016277;28;20419;-71
2022/07/31 03:54:51;;;;;;;4.30;3.50;;;20.10;62.90;;;;;;5000498;28;20440;-71
2022/07/31 03:57:19;;;;;;;3.80;3.50;;;20.20;62.00;;;;;;5000663;28;20760;-71
2022/07/31 03:59:46;;;;;;;3.50;3.20;;;20.20;62.30;;;;;;4997718;28;20430;-71
2022/07/31 04:02:15;;;;;;;3.80;3.25;;;20.10;61.40;;;;;;4993271;28;20442;-71
2022/07/31 04:04:43;;;;;;;3.80;3.20;;;20.10;61.90;;;;;;4994667;28;20907;-71
2022/07/31 04:07:10;;;;;;;4.70;3.67;;;20.10;61.90;;;;;;5009440;28;20636;-71
2022/07/31 04:09:38;;;;;;;3.75;3.45;;;20.20;62.50;;;;;;4993750;28;20477;-71
2022/07/31 04:12:05;;;;;;;4.95;3.20;;;20.20;61.70;;;;;;5005274;28;20459;-72
2022/07/31 04:14:32;;;;;;;3.73;3.43;;;20.20;60.70;;;;;;5001728;28;20445;-71
2022/07/31 04:16:59;;;;;;;3.77;3.20;;;20.20;60.90;;;;;;5006565;28;20477;-72
2022/07/31 04:19:29;;;;;;;3.40;3.10;;;20.20;61.10;;;;;;4997852;28;20452;-73
2022/07/31 04:21:56;;;;;;;3.45;3.15;;;20.20;61.70;;;;;;4996175;28;20436;-71
2022/07/31 04:24:23;;;;;;;3.58;3.28;;;20.20;61.00;;;;;;4997995;28;20554;-71
2022/07/31 04:26:50;;;;;;;3.50;3.10;;;20.20;61.00;;;;;;5008165;28;20459;-71
2022/07/31 04:29:17;;;;;;;7.78;3.38;;;20.20;61.40;;;;;;5004678;28;20528;-71
2022/07/31 04:31:43;;;;;;;4.00;3.10;;;20.30;60.80;;;;;;5004477;28;20456;-71
2022/07/31 04:34:10;;;;;;;3.60;3.30;;;20.30;61.20;;;;;;5005402;28;20448;-71
2022/07/31 04:36:39;;;;;;;5.20;3.08;;;20.30;61.00;;;;;;4997112;28;20463;-71
2022/07/31 04:39:06;;;;;;;5.50;3.47;;;20.30;60.90;;;;;;4999528;28;20737;-72
2022/07/31 04:41:33;;;;;;;3.83;3.05;;;20.30;61.90;;;;;;5009170;28;20460;-72
2022/07/31 04:44:00;;;;;;;4.15;3.25;;;20.40;62.60;;;;;;4992480;28;20464;-71
2022/07/31 04:46:27;;;;;;;3.58;3.10;;;20.30;60.70;;;;;;4996234;28;20446;-73
2022/07/31 04:48:54;;;;;;;3.10;2.80;;;20.30;60.50;;;;;;5001697;28;20459;-71
2022/07/31 04:51:23;;;;;;;3.55;3.10;;;20.40;60.20;;;;;;5004261;28;20554;-72
2022/07/31 04:53:52;;;;;;;4.30;2.80;;;20.40;59.70;;;;;;4986094;28;20497;-71
2022/07/31 04:56:36;;;;;;;4.18;2.92;;;20.50;59.10;;;;;;5008815;28;20427;-70
2022/07/31 04:59:05;;;;;;;3.60;3.20;;;20.50;59.00;;;;;;5006493;28;20901;-72
2022/07/31 05:01:32;;;;;;;4.43;3.10;;;20.50;58.50;;;;;;5002751;28;20754;-72
2022/07/31 05:03:59;;;;;;;2.90;2.60;;;20.50;58.40;;;;;;5004896;28;20439;-73
2022/07/31 05:06:34;;;;;;;3.40;2.70;;;20.50;58.30;;;;;;5007062;28;20444;-72
2022/07/31 05:09:04;;;;;;;3.35;2.72;;;20.50;58.50;;;;;;5002391;28;20547;-72
2022/07/31 05:11:31;;;;;;;3.67;2.65;;;20.50;58.50;;;;;;5000244;28;20430;-72
2022/07/31 05:14:00;;;;;;;5.10;3.10;;;20.50;58.40;;;;;;4995370;28;20511;-70
2022/07/31 05:16:28;;;;;;;2.70;2.50;;;20.50;58.50;;;;;;4997391;28;20897;-71
2022/07/31 05:18:55;;;;;;;5.05;3.03;;;20.60;59.10;;;;;;4998530;28;20437;-72
2022/07/31 05:21:23;;;;;;;6.40;3.10;;;20.60;58.70;;;;;;5002156;28;20459;-72
2022/07/31 05:23:50;;;;;;;4.60;2.90;;;20.60;58.70;;;;;;4996249;28;20432;-72
2022/07/31 05:26:19;;;;;;;3.83;2.70;;;20.60;58.70;;;;;;5007310;28;20436;-72
2022/07/31 05:28:46;;;;;;;3.10;2.60;;;20.60;59.10;;;;;;4998514;28;20436;-72
2022/07/31 05:31:13;;;;;;;3.30;2.50;;;20.60;59.10;;;;;;4998631;28;20456;-72
2022/07/31 05:33:40;;;;;;;4.00;2.75;;;20.70;59.00;;;;;;4994026;28;20521;-72
2022/07/31 05:36:07;;;;;;;6.55;2.70;;;20.70;59.00;;;;;;4999114;28;20446;-70
2022/07/31 05:38:34;;;;;;;3.77;2.53;;;20.80;58.90;;;;;;5000290;28;20532;-70
2022/07/31 05:41:01;;;;;;;3.57;2.70;;;20.80;59.70;;;;;;5000372;28;20504;-72
2022/07/31 05:43:29;;;;;;;3.30;2.58;;;20.90;58.70;;;;;;5004393;28;20456;-70
2022/07/31 05:45:56;;;;;;;3.47;2.57;;;20.90;59.80;;;;;;4999175;28;20435;-72
2022/07/31 05:48:23;;;;;;;3.90;2.88;;;20.90;59.30;;;;;;5001757;28;20449;-71
2022/07/31 05:50:51;;;;;;;2.80;2.40;;;20.90;59.30;;;;;;4997513;28;20445;-70
2022/07/31 05:53:19;;;;;;;3.00;2.70;;;20.80;59.20;;;;;;5011523;28;20424;-71
2022/07/31 05:55:47;;;;;;;3.90;2.47;;;20.80;59.30;;;;;;4995812;28;20467;-72
2022/07/31 05:58:15;;;;;;;3.85;2.47;;;20.80;59.70;;;;;;5002846;28;20452;-71
2022/07/31 06:00:45;;;;;;;3.27;2.37;;;20.90;59.50;;;;;;5003958;28;20799;-71
2022/07/31 06:03:12;;;;;;;2.50;2.20;;;20.80;59.80;;;;;;4992326;28;20511;-73
2022/07/31 06:05:40;;;;;;;3.83;2.40;;;20.80;59.90;;;;;;4994353;28;20437;-68
2022/07/31 06:08:08;;;;;;;2.30;2.10;;;20.80;59.90;;;;;;5011934;28;20427;-67
2022/07/31 06:10:35;;;;;;;2.80;2.20;;;20.80;60.00;;;;;;5010692;28;20468;-67
2022/07/31 06:13:02;;;;;;;2.60;2.40;;;20.80;60.10;;;;;;5006246;28;20858;-67
2022/07/31 06:15:29;;;;;;;2.90;2.20;;;20.80;60.60;;;;;;4989662;28;20438;-67
2022/07/31 06:17:58;;;;;;;2.88;2.67;;;20.70;60.80;;;;;;4996906;28;20435;-67
2022/07/31 06:20:25;;;;;;;2.85;2.22;;;20.80;61.00;;;;;;4988944;28;20946;-70
2022/07/31 06:22:51;;;;;;;2.35;2.15;;;20.90;60.70;;;;;;4996840;28;20440;-68
2022/07/31 06:25:18;;;;;;;4.00;2.50;;;20.90;61.40;;;;;;4997391;28;20440;-71
2022/07/31 06:27:45;;;;;;;2.20;2.00;;;21.10;60.70;;;;;;5006443;28;21074;-67
2022/07/31 06:30:13;;;;;;;3.30;2.40;;;21.20;59.90;;;;;;5007042;28;20443;-70
2022/07/31 06:32:40;;;;;;;3.88;2.30;;;21.30;59.80;;;;;;5002395;28;20469;-72
2022/07/31 06:35:09;;;;;;;3.28;2.30;;;21.20;59.20;;;;;;4994871;28;20436;-68
2022/07/31 06:37:36;;;;;;;4.22;2.40;;;21.20;59.60;;;;;;4995769;28;20438;-68
2022/07/31 06:40:03;;;;;;;3.50;2.40;;;21.10;59.90;;;;;;4997912;28;20432;-68
2022/07/31 06:42:30;;;;;;;3.70;2.22;;;21.00;60.10;;;;;;4999081;28;20546;-68
2022/07/31 06:44:57;;;;;;;2.50;2.30;;;21.10;60.10;;;;;;5003723;28;20454;-68
2022/07/31 06:47:25;;;;;;;3.80;2.40;;;21.10;60.30;;;;;;4998131;28;20528;-68
2022/07/31 06:49:53;;;;;;;3.67;2.40;;;21.10;60.10;;;;;;4998038;28;20455;-67
2022/07/31 06:52:21;;;;;;;4.10;2.60;;;21.10;60.30;;;;;;4993240;28;20437;-69
2022/07/31 06:54:48;;;;;;;2.30;2.00;;;21.20;59.90;;;;;;5002815;28;20437;-68
2022/07/31 06:57:15;;;;;;;3.10;2.35;;;21.20;60.00;;;;;;4993838;28;20432;-69
2022/07/31 06:59:41;;;;;;;3.00;2.70;;;21.30;59.90;;;;;;5006756;28;20540;-69
2022/07/31 07:02:09;;;;;;;3.50;2.30;;;21.30;59.80;;;;;;4997094;28;20636;-69
2022/07/31 07:04:36;;;;;;;3.47;2.20;;;21.20;59.90;;;;;;4998328;28;20909;-68
2022/07/31 07:07:03;;;;;;;3.75;2.30;;;21.20;60.70;;;;;;5005124;28;20432;-69
2022/07/31 07:09:31;;;;;;;3.05;2.25;;;21.20;60.30;;;;;;4998578;28;20450;-68
2022/07/31 07:11:58;;;;;;;2.90;2.25;;;21.10;60.40;;;;;;4996967;28;20438;-68
2022/07/31 07:14:25;;;;;;;4.22;2.25;;;21.00;60.40;;;;;;4996510;28;20477;-68
2022/07/31 07:16:52;;;;;;;3.85;2.30;;;21.00;60.90;;;;;;4993263;28;20431;-68
2022/07/31 07:19:18;;;;;;;2.78;2.00;;;21.00;60.80;;;;;;4997728;28;20531;-71
2022/07/31 07:21:45;;;;;;;3.67;2.58;;;21.00;61.60;;;;;;4994283;28;20502;-71
2022/07/31 07:24:12;;;;;;;2.70;2.10;;;21.10;60.20;;;;;;5001394;28;20429;-72
2022/07/31 07:26:40;;;;;;;3.17;2.15;;;21.00;60.20;;;;;;4992389;28;20440;-71
2022/07/31 07:29:09;;;;;;;2.50;2.20;;;21.00;60.70;;;;;;5005641;28;20430;-71
2022/07/31 07:31:36;;;;;;;3.30;2.30;;;21.10;60.60;;;;;;4998433;28;20470;-72
2022/07/31 07:34:05;;;;;;;2.80;2.20;;;21.20;61.10;;;;;;4990042;28;20951;-72
2022/07/31 07:36:32;;;;;;;2.50;2.30;;;21.20;60.30;;;;;;5005195;28;20429;-73
2022/07/31 07:38:59;;;;;;;3.47;2.60;;;21.10;60.60;;;;;;5013330;28;20444;-71
2022/07/31 07:41:26;;;;;;;2.70;2.35;;;21.10;60.50;;;;;;5002756;28;20433;-71
2022/07/31 07:43:54;;;;;;;4.93;2.80;;;21.00;60.40;;;;;;4996630;28;20434;-70
2022/07/31 07:46:21;;;;;;;4.20;2.60;;;21.00;60.60;;;;;;4987949;28;20434;-71
2022/07/31 07:48:49;;;;;;;2.92;2.40;;;21.00;60.50;;;;;;4998848;28;20451;-70
2022/07/31 07:51:16;;;;;;;2.97;2.30;;;21.10;60.50;;;;;;5000933;28;20433;-70
2022/07/31 07:53:43;;;;;;;2.33;2.13;;;21.10;60.70;;;;;;5013456;28;20920;-71
2022/07/31 07:56:10;;;;;;;3.80;2.27;;;21.20;60.20;;;;;;5002655;28;20465;-71
2022/07/31 07:58:36;;;;;;;2.90;2.10;;;21.20;60.20;;;;;;5005589;28;20458;-72
2022/07/31 08:01:05;;;;;;;3.10;2.10;;;21.40;59.50;;;;;;4991671;28;20452;-76
2022/07/31 08:03:31;;;;;;;3.50;2.37;;;21.50;58.20;;;;;;4991935;28;20439;-77
2022/07/31 08:05:58;;;;;;;2.30;2.10;;;21.60;58.80;;;;;;4991311;28;20930;-77
2022/07/31 08:10:53;;;;;;;2.30;1.88;;;21.70;57.90;;;;;;4977982;28;20498;-74
2022/07/31 08:13:20;;;;;;;2.88;1.98;;;21.90;57.90;;;;;;4979273;28;20434;-74
2022/07/31 08:15:47;;;;;;;1.90;1.80;;;22.00;57.10;;;;;;4982951;28;20442;-73
2022/07/31 08:18:16;;;;;;;2.15;1.83;;;22.00;56.90;;;;;;4995307;28;20422;-74
2022/07/31 08:20:43;;;;;;;2.08;1.67;;;22.10;57.00;;;;;;4969884;28;20428;-72
2022/07/31 08:23:09;;;;;;;2.60;1.50;;;22.20;56.90;;;;;;4970102;28;20447;-73
2022/07/31 08:25:36;;;;;;;2.25;1.80;;;22.20;56.70;;;;;;4970093;28;20439;-72
2022/07/31 08:28:03;;;;;;;3.10;1.58;;;22.20;56.80;;;;;;4984073;28;20501;-72
2022/07/31 08:30:30;;;;;;;1.70;1.60;;;22.20;56.70;;;;;;4976223;28;20430;-72
2022/07/31 08:32:56;;;;;;;2.10;1.65;;;22.10;57.50;;;;;;4972752;28;20954;-72
2022/07/31 08:35:25;;;;;;;2.20;1.60;;;22.30;57.40;;;;;;4978273;28;20439;-72
2022/07/31 08:37:51;;;;;;;4.30;1.60;;;22.50;57.00;;;;;;4982865;28;20506;-72
2022/07/31 08:40:18;;;;;;;2.55;1.42;;;22.50;56.90;;;;;;4970274;28;20451;-72
2022/07/31 08:42:46;;;;;;;1.67;1.50;;;22.60;56.90;;;;;;4972960;28;20530;-73
2022/07/31 08:45:14;;;;;;;1.67;1.40;;;22.90;56.60;;;;;;4975627;28;20438;-73
2022/07/31 08:47:46;;;;;;;2.92;1.30;;;23.20;55.60;;;;;;4977239;28;20523;-73
2022/07/31 08:50:15;;;;;;;1.98;1.25;;;23.30;55.00;;;;;;4978972;28;20507;-71
2022/07/31 08:52:44;;;;;;;1.63;1.30;;;23.20;55.20;;;;;;4969572;28;20428;-73
2022/07/31 08:55:12;;;;;;;2.00;1.20;;;23.20;55.60;;;;;;4977726;28;20861;-72
2022/07/31 08:57:39;;;;;;;1.58;1.10;;;23.10;55.80;;;;;;4976507;28;20440;-73
2022/07/31 09:00:07;;;;;;;1.58;1.02;;;23.10;55.70;;;;;;4987105;28;20453;-71
2022/07/31 09:02:34;;;;;;;1.33;0.90;;;23.50;55.80;;;;;;4970291;28;20433;-71
2022/07/31 09:05:00;;;;;;;0.80;0.80;;;24.00;53.50;;;;;;4969311;28;20424;-72
2022/07/31 09:07:27;;;;;;;2.23;0.87;;;24.30;52.90;;;;;;4968262;28;20946;-72
2022/07/31 09:09:56;;;;;;;1.10;1.00;;;24.50;51.70;;;;;;4982489;28;20525;-74
2022/07/31 09:12:32;;;;;;;1.02;0.90;;;24.50;52.50;;;;;;4972433;28;20515;-74
2022/07/31 09:14:59;;;;;;;1.70;1.10;;;24.50;52.20;;;;;;4976191;28;20778;-74
2022/07/31 09:17:34;;;;;;;1.20;1.10;;;24.30;53.50;;;;;;4960661;28;20428;-74
2022/07/31 09:20:01;;;;;;;1.40;1.00;;;24.00;53.90;;;;;;4952207;28;20446;-74
2022/07/31 09:22:30;;;;;;;1.20;0.95;;;23.70;55.10;;;;;;4957102;28;20441;-72
2022/07/31 09:25:10;;;;;;;2.47;1.20;;;23.50;54.60;;;;;;4963952;28;20426;-72
2022/07/31 09:27:37;;;;;;;1.70;1.15;;;23.40;56.40;;;;;;4972788;28;20436;-72
2022/07/31 09:30:06;;;;;;;1.20;1.10;;;23.40;54.90;;;;;;4973346;28;20446;-71
2022/07/31 09:32:33;;;;;;;2.00;1.10;;;23.50;54.80;;;;;;4982530;28;20854;-71
2022/07/31 09:35:08;;;;;;;2.33;1.25;;;23.40;55.00;;;;;;4968988;28;20437;-71
2022/07/31 09:37:35;;;;;;;1.30;1.00;;;23.60;56.20;;;;;;4968233;28;20432;-74
2022/07/31 09:40:02;;;;;;;1.20;1.05;;;24.00;54.30;;;;;;4981154;28;20436;-74
2022/07/31 09:42:38;;;;;;;1.10;0.93;;;24.40;52.80;;;;;;4984571;28;20457;-72
2022/07/31 09:45:17;;;;;;;2.10;1.30;;;24.50;52.90;;;;;;4970875;28;20438;-71
2022/07/31 09:47:43;;;;;;;1.50;1.00;;;24.70;51.80;;;;;;4977445;28;20432;-71
2022/07/31 09:50:10;;;;;;;1.15;1.05;;;24.60;52.20;;;;;;4968605;28;20520;-71
2022/07/31 09:52:37;;;;;;;1.08;0.98;;;24.80;51.40;;;;;;4968866;28;20424;-71
2022/07/31 09:55:06;;;;;;;1.42;1.00;;;25.20;50.20;;;;;;4972184;28;20469;-72
2022/07/31 09:57:34;;;;;;;1.67;1.30;;;25.40;49.20;;;;;;4976887;28;20899;-71
2022/07/31 10:00:04;;;;;;;1.90;1.10;;;25.10;49.80;;;;;;4972332;28;20461;-73
2022/07/31 10:02:33;;;;;;;1.55;1.08;;;25.20;51.00;;;;;;4984485;28;20934;-71
2022/07/31 10:05:01;;;;;;;1.23;1.08;;;25.50;49.80;;;;;;4968976;28;20511;-73
2022/07/31 10:07:34;;;;;;;1.50;1.08;;;25.60;50.60;;;;;;4968854;28;20431;-72
2022/07/31 10:10:02;;;;;;;1.30;1.20;;;25.60;49.30;;;;;;4976760;28;20430;-73
2022/07/31 10:12:31;;;;;;;1.20;1.10;;;25.30;50.20;;;;;;4973229;28;20443;-73
2022/07/31 10:15:06;;;;;;;1.42;1.20;;;25.10;50.70;;;;;;4970000;28;20441;-74
2022/07/31 10:17:38;;;;;;;1.80;1.25;;;25.10;50.80;;;;;;4969223;28;20434;-74
2022/07/31 10:20:07;;;;;;;2.30;1.20;;;25.10;50.00;;;;;;4970255;28;20438;-71
2022/07/31 10:22:38;;;;;;;2.10;1.20;;;25.10;50.60;;;;;;4982887;28;20501;-73
2022/07/31 10:25:11;;;;;;;1.15;1.05;;;25.10;50.30;;;;;;4971681;28;20442;-72
2022/07/31 10:27:38;;;;;;;3.00;1.17;;;25.10;49.30;;;;;;4968524;28;20443;-73
2022/07/31 10:30:09;;;;;;;1.20;1.00;;;25.00;49.30;;;;;;4971916;28;20445;-73
2022/07/31 10:32:36;;;;;;;1.40;1.10;;;24.80;50.20;;;;;;4973957;28;20451;-74
2022/07/31 10:35:06;;;;;;;1.30;1.20;;;24.60;49.20;;;;;;4980803;28;20488;-70
2022/07/31 10:37:38;;;;;;;1.80;1.00;;;24.90;48.70;;;;;;4988390;28;20477;-73
2022/07/31 10:40:12;;;;;;;1.55;0.90;;;25.10;47.70;;;;;;4988106;28;20422;-73
2022/07/31 10:42:46;;;;;;;2.60;1.20;;;25.20;46.90;;;;;;4988747;28;20437;-73
2022/07/31 10:45:15;;;;;;;2.80;1.30;;;25.50;46.40;;;;;;4975001;28;20436;-73
2022/07/31 10:47:53;;;;;;;1.75;1.40;;;25.70;46.70;;;;;;4967758;28;20445;-73
2022/07/31 10:50:21;;;;;;;2.20;1.30;;;26.00;46.50;;;;;;4969388;28;20431;-73
2022/07/31 10:52:48;;;;;;;1.23;0.90;;;26.40;46.30;;;;;;4968433;28;20427;-73
2022/07/31 10:55:16;;;;;;;0.95;0.80;;;26.90;45.90;;;;;;4987438;28;20419;-73
2022/07/31 10:57:43;;;;;;;0.82;0.80;;;27.40;44.70;;;;;;4965504;28;20441;-73
2022/07/31 11:00:12;;;;;;;1.17;1.08;;;27.80;43.20;;;;;;4961490;28;20440;-72
2022/07/31 11:02:40;;;;;;;1.48;0.90;;;28.00;42.90;;;;;;4962544;28;20527;-73
2022/07/31 11:05:09;;;;;;;1.70;1.10;;;27.90;40.00;;;;;;4957744;28;20425;-73
2022/07/31 11:07:36;;;;;;;1.92;1.00;;;27.70;40.80;;;;;;4948910;28;20437;-73
2022/07/31 11:10:16;;;;;;;2.00;0.80;;;27.70;40.90;;;;;;4949276;28;20498;-72
2022/07/31 11:12:43;;;;;;;1.52;1.10;;;27.80;41.60;;;;;;4964539;28;20487;-73
2022/07/31 11:15:21;;;;;;;1.50;0.80;;;28.10;41.80;;;;;;4970296;28;20527;-73
2022/07/31 11:17:50;;;;;;;2.65;1.15;;;28.50;38.90;;;;;;4966322;28;20426;-73
2022/07/31 11:20:22;;;;;;;1.33;0.90;;;28.50;38.50;;;;;;4973816;28;20465;-73
2022/07/31 11:22:54;;;;;;;1.60;1.00;;;28.10;39.30;;;;;;4953845;28;20938;-73
2022/07/31 11:25:22;;;;;;;2.03;1.10;;;28.10;39.10;;;;;;4961602;28;20531;-73
2022/07/31 11:27:49;;;;;;;2.17;1.30;;;28.00;39.90;;;;;;4965585;28;20871;-72
2022/07/31 11:30:16;;;;;;;1.80;1.20;;;28.00;40.50;;;;;;4976442;28;20444;-74
2022/07/31 11:32:49;;;;;;;1.77;1.00;;;28.10;39.50;;;;;;4977411;28;20428;-73
2022/07/31 11:35:29;;;;;;;1.23;1.00;;;28.20;40.20;;;;;;4965535;28;20436;-72
2022/07/31 11:37:57;;;;;;;1.70;1.20;;;28.00;40.70;;;;;;4969550;28;20422;-73
2022/07/31 11:40:24;;;;;;;1.20;1.00;;;27.80;40.60;;;;;;4964140;28;20429;-73
2022/07/31 11:42:52;;;;;;;2.47;1.20;;;27.90;40.90;;;;;;4951923;28;20912;-73
2022/07/31 11:45:19;;;;;;;1.23;1.13;;;28.10;40.50;;;;;;4970957;28;20927;-72
2022/07/31 11:47:47;;;;;;;1.48;0.90;;;28.20;39.00;;;;;;4987292;28;20434;-74
2022/07/31 11:50:15;;;;;;;1.40;1.17;;;28.10;39.10;;;;;;4971357;28;20444;-73
2022/07/31 11:52:43;;;;;;;1.30;1.10;;;27.90;40.00;;;;;;4986309;28;20422;-73
2022/07/31 11:55:12;;;;;;;2.55;1.20;;;27.70;40.10;;;;;;4976395;28;20453;-73
2022/07/31 11:57:40;;;;;;;2.05;1.17;;;27.70;40.90;;;;;;4974322;28;20473;-73
2022/07/31 12:00:08;;;;;;;2.60;1.40;;;27.60;41.60;;;;;;4970005;28;20460;-74
2022/07/31 12:02:40;;;;;;;2.60;1.20;;;27.20;42.30;;;;;;4969391;28;20423;-73
2022/07/31 12:05:08;;;;;;;2.20;2.00;;;27.00;43.00;;;;;;4958526;28;20498;-73
2022/07/31 12:07:38;;;;;;;1.98;1.20;;;27.30;43.70;;;;;;4970172;28;20936;-74
2022/07/31 12:10:05;;;;;;;1.70;1.00;;;28.00;42.70;;;;;;4957441;28;20447;-74
2022/07/31 12:12:32;;;;;;;1.92;1.05;;;28.80;41.60;;;;;;4972890;28;20949;-74
2022/07/31 12:14:59;;;;;;;1.10;1.00;;;29.50;39.30;;;;;;4967956;28;20438;-74
2022/07/31 12:17:25;;;;;;;1.30;1.00;;;30.00;38.00;;;;;;4974857;28;20431;-74
2022/07/31 12:19:52;;;;;;;1.00;0.90;;;30.20;38.00;;;;;;4977325;28;20430;-74
2022/07/31 12:22:20;;;;;;;2.20;1.00;;;30.20;37.20;;;;;;4961683;28;20824;-74
2022/07/31 12:24:59;;;;;;;1.50;1.20;;;30.20;37.30;;;;;;4976831;28;20921;-74
2022/07/31 12:27:26;;;;;;;1.15;0.93;;;29.70;39.10;;;;;;4965345;28;20433;-73
2022/07/31 12:29:53;;;;;;;1.30;1.20;;;29.60;38.70;;;;;;4974005;28;20446;-74
2022/07/31 12:32:25;;;;;;;1.57;1.00;;;29.70;39.10;;;;;;4979483;28;20433;-74
2022/07/31 12:35:01;;;;;;;1.20;1.10;;;30.20;38.00;;;;;;4953617;28;20500;-74
2022/07/31 12:37:28;;;;;;;1.80;1.10;;;30.30;37.80;;;;;;4961325;28;20585;-74
2022/07/31 12:39:57;;;;;;;1.80;1.30;;;30.20;38.00;;;;;;4950725;28;20426;-73
2022/07/31 12:42:26;;;;;;;1.30;1.10;;;29.90;38.30;;;;;;4963587;28;20930;-73
2022/07/31 12:44:54;;;;;;;1.50;1.20;;;29.90;39.40;;;;;;4976951;28;20449;-74
2022/07/31 12:47:21;;;;;;;1.10;1.00;;;29.70;39.00;;;;;;4979353;28;20489;-73
2022/07/31 12:49:48;;;;;;;2.03;1.10;;;29.70;39.40;;;;;;4970558;28;20439;-74
2022/07/31 12:52:15;;;;;;;1.00;0.90;;;29.70;39.90;;;;;;4968212;28;20428;-73
2022/07/31 12:54:42;;;;;;;1.23;1.13;;;29.80;39.10;;;;;;4956646;28;20508;-74
2022/07/31 12:57:10;;;;;;;1.55;1.10;;;29.90;38.80;;;;;;4977915;28;20959;-72